createdAt,value
2018-02-19T00:00:01.800Z,97.00
2018-02-19T00:01:01.727Z,97.10
2018-02-19T00:02:01.631Z,97.19
2018-02-19T00:03:01.546Z,97.67
2018-02-19T00:04:01.472Z,98.14
2018-02-19T00:05:01.379Z,98.04
2018-02-19T00:06:01.301Z,98.04
2018-02-19T00:07:01.213Z,97.95
2018-02-19T00:08:01.136Z,98.33
2018-02-19T00:09:01.041Z,98.14
2018-02-19T00:10:00.970Z,97.29
2018-02-19T00:11:00.874Z,95.50
2018-02-19T00:12:00.795Z,93.89
2018-02-19T00:13:00.702Z,93.32
2018-02-19T00:14:00.624Z,91.91
2018-02-19T00:15:00.534Z,91.63
2018-02-19T00:16:00.459Z,91.82
2018-02-19T00:17:00.364Z,91.91
2018-02-19T00:18:00.288Z,93.04
2018-02-19T00:19:00.198Z,94.08
2018-02-19T00:20:00.122Z,94.93
2018-02-19T00:21:00.028Z,95.97
2018-02-19T00:21:59.954Z,96.44
2018-02-19T00:22:59.857Z,96.34
2018-02-19T00:23:59.779Z,96.91
2018-02-19T00:24:59.696Z,96.91
2018-02-19T00:26:00.614Z,96.72
2018-02-19T00:26:59.521Z,96.53
2018-02-19T00:27:59.447Z,96.15
2018-02-19T00:28:59.352Z,95.78
2018-02-19T00:29:59.277Z,96.53
2018-02-19T00:30:59.180Z,96.91
2018-02-19T00:31:59.104Z,97.00
2018-02-19T00:32:59.015Z,96.91
2018-02-19T00:33:58.938Z,96.72
2018-02-19T00:34:58.846Z,97.38
2018-02-19T00:35:58.769Z,97.10
2018-02-19T00:36:58.677Z,97.57
2018-02-19T00:37:58.598Z,97.48
2018-02-19T00:38:58.506Z,97.67
2018-02-19T00:39:58.426Z,97.57
2018-02-19T00:40:58.338Z,97.57
2018-02-19T00:41:58.261Z,97.57
2018-02-19T00:42:58.166Z,97.57
2018-02-19T00:43:58.089Z,97.67
2018-02-19T00:44:57.998Z,97.48
2018-02-19T00:45:57.924Z,97.29
2018-02-19T00:46:57.830Z,97.10
2018-02-19T00:47:57.758Z,97.38
2018-02-19T00:48:57.660Z,97.00
2018-02-19T00:49:57.581Z,96.53
2018-02-19T00:50:57.496Z,96.34
2018-02-19T00:51:57.416Z,94.18
2018-02-19T00:52:57.321Z,92.95
2018-02-19T00:53:57.246Z,92.66
2018-02-19T00:54:57.155Z,92.76
2018-02-19T00:55:57.073Z,92.95
2018-02-19T00:56:56.984Z,93.70
2018-02-19T00:57:56.908Z,94.93
2018-02-19T00:58:56.816Z,95.40
2018-02-19T00:59:56.738Z,94.74
2018-02-19T01:00:56.643Z,95.31
2018-02-19T01:01:56.572Z,94.93
2018-02-19T01:02:56.485Z,94.46
2018-02-19T01:03:56.401Z,93.99
2018-02-19T01:04:56.308Z,93.61
2018-02-19T01:05:56.229Z,93.89
2018-02-19T01:06:56.139Z,95.12
2018-02-19T01:07:56.060Z,96.06
2018-02-19T01:08:55.966Z,96.34
2018-02-19T01:09:55.898Z,97.00
2018-02-19T01:10:55.800Z,97.00
2018-02-19T01:11:55.724Z,97.48
2018-02-19T01:12:55.669Z,97.48
2018-02-19T01:13:55.554Z,97.67
2018-02-19T01:14:55.459Z,97.67
2018-02-19T01:15:55.379Z,97.29
2018-02-19T01:16:55.293Z,97.57
2018-02-19T01:17:55.213Z,97.85
2018-02-19T01:18:55.127Z,97.67
2018-02-19T01:19:55.044Z,97.76
2018-02-19T01:20:54.957Z,97.85
2018-02-19T01:21:54.876Z,97.29
2018-02-19T01:22:54.785Z,97.38
2018-02-19T01:23:54.706Z,96.34
2018-02-19T01:24:54.621Z,95.21
2018-02-19T01:25:54.535Z,94.46
2018-02-19T01:26:54.443Z,93.80
2018-02-19T01:27:54.371Z,93.04
2018-02-19T01:28:54.277Z,92.85
2018-02-19T01:29:54.197Z,93.13
2018-02-19T01:30:54.105Z,92.29
2018-02-19T01:31:54.029Z,92.00
2018-02-19T01:32:53.937Z,92.85
2018-02-19T01:33:53.861Z,92.76
2018-02-19T01:34:53.767Z,94.36
2018-02-19T01:35:53.696Z,94.55
2018-02-19T01:36:53.597Z,95.12
2018-02-19T01:37:53.518Z,95.50
2018-02-19T01:38:53.428Z,95.31
2018-02-19T01:39:53.351Z,95.68
2018-02-19T01:40:53.259Z,95.03
2018-02-19T01:41:53.180Z,95.21
2018-02-19T01:42:53.088Z,94.46
2018-02-19T01:43:53.011Z,93.94
2018-02-19T01:44:52.919Z,92.76
2018-02-19T01:45:52.844Z,92.61
2018-02-19T01:46:52.753Z,93.09
2018-02-19T01:47:52.671Z,93.28
2018-02-19T01:48:52.579Z,93.18
2018-02-19T01:49:52.501Z,93.84
2018-02-19T01:50:52.411Z,93.84
2018-02-19T01:51:52.333Z,93.84
2018-02-19T01:52:52.246Z,94.41
2018-02-19T01:53:52.163Z,94.60
2018-02-19T01:54:52.069Z,94.60
2018-02-19T01:55:51.996Z,94.41
2018-02-19T01:56:51.909Z,94.03
2018-02-19T01:57:51.826Z,93.75
2018-02-19T01:58:51.731Z,94.51
2018-02-19T01:59:51.648Z,94.98
2018-02-19T02:00:51.560Z,94.22
2018-02-19T02:01:51.486Z,93.09
2018-02-19T02:02:51.397Z,92.52
2018-02-19T02:03:51.315Z,92.52
2018-02-19T02:04:51.220Z,92.05
2018-02-19T02:05:51.145Z,92.14
2018-02-19T02:06:51.051Z,91.86
2018-02-19T02:07:50.975Z,91.02
2018-02-19T02:08:50.881Z,90.55
2018-02-19T02:09:50.802Z,90.83
2018-02-19T02:10:50.711Z,91.67
2018-02-19T02:11:50.640Z,91.96
2018-02-19T02:12:50.546Z,91.96
2018-02-19T02:13:50.465Z,91.96
2018-02-19T02:14:50.370Z,91.49
2018-02-19T02:15:50.295Z,91.30
2018-02-19T02:16:50.204Z,91.86
2018-02-19T02:17:50.130Z,92.71
2018-02-19T02:18:50.033Z,92.61
2018-02-19T02:19:49.951Z,92.71
2018-02-19T02:20:49.865Z,92.05
2018-02-19T02:21:49.784Z,92.05
2018-02-19T02:22:49.690Z,92.05
2018-02-19T02:23:49.617Z,91.58
2018-02-19T02:24:49.519Z,91.67
2018-02-19T02:25:49.444Z,91.77
2018-02-19T02:26:49.351Z,91.30
2018-02-19T02:27:49.276Z,90.55
2018-02-19T02:28:49.180Z,90.36
2018-02-19T02:29:49.106Z,89.60
2018-02-19T02:30:49.013Z,89.98
2018-02-19T02:31:48.933Z,90.83
2018-02-19T02:32:48.840Z,91.49
2018-02-19T02:33:48.765Z,92.43
2018-02-19T02:34:48.668Z,91.67
2018-02-19T02:35:48.596Z,91.39
2018-02-19T02:36:48.498Z,90.64
2018-02-19T02:37:48.420Z,90.73
2018-02-19T02:38:48.330Z,90.26
2018-02-19T02:39:48.256Z,90.73
2018-02-19T02:40:48.157Z,90.55
2018-02-19T02:41:48.082Z,91.49
2018-02-19T02:42:47.987Z,91.96
2018-02-19T02:43:47.912Z,91.96
2018-02-19T02:44:47.815Z,91.49
2018-02-19T02:45:47.736Z,91.49
2018-02-19T02:46:47.646Z,91.77
2018-02-19T02:47:47.570Z,90.55
2018-02-19T02:48:47.476Z,89.03
2018-02-19T02:49:47.397Z,88.65
2018-02-19T02:50:47.304Z,88.37
2018-02-19T02:51:47.225Z,88.75
2018-02-19T02:52:47.130Z,88.84
2018-02-19T02:53:47.055Z,89.32
2018-02-19T02:54:46.960Z,90.17
2018-02-19T02:55:46.887Z,90.73
2018-02-19T02:56:46.793Z,91.49
2018-02-19T02:57:46.721Z,92.14
2018-02-19T02:58:46.620Z,91.30
2018-02-19T02:59:46.548Z,91.53
2018-02-19T03:00:46.449Z,91.11
2018-02-19T03:01:46.374Z,91.86
2018-02-19T03:02:46.275Z,92.05
2018-02-19T03:03:46.202Z,92.00
2018-02-19T03:04:46.107Z,92.10
2018-02-19T03:05:46.028Z,91.53
2018-02-19T03:06:45.934Z,91.72
2018-02-19T03:07:45.859Z,91.91
2018-02-19T03:08:45.763Z,91.82
2018-02-19T03:09:45.689Z,91.63
2018-02-19T03:10:45.594Z,92.38
2018-02-19T03:11:45.510Z,91.82
2018-02-19T03:12:45.424Z,90.69
2018-02-19T03:13:45.347Z,90.59
2018-02-19T03:14:45.252Z,91.63
2018-02-19T03:15:45.171Z,91.72
2018-02-19T03:16:45.081Z,91.53
2018-02-19T03:17:45.004Z,91.25
2018-02-19T03:18:44.912Z,91.72
2018-02-19T03:19:44.830Z,91.91
2018-02-19T03:20:44.739Z,92.10
2018-02-19T03:21:44.660Z,92.95
2018-02-19T03:22:44.567Z,93.42
2018-02-19T03:23:44.493Z,93.89
2018-02-19T03:24:44.396Z,94.51
2018-02-19T03:25:44.316Z,95.02
2018-02-19T03:26:44.225Z,95.17
2018-02-19T03:27:44.147Z,94.83
2018-02-19T03:28:44.055Z,94.98
2018-02-19T03:29:43.977Z,96.01
2018-02-19T03:30:43.882Z,96.11
2018-02-19T03:31:43.798Z,95.92
2018-02-19T03:32:43.709Z,96.11
2018-02-19T03:33:43.638Z,95.92
2018-02-19T03:34:43.539Z,95.83
2018-02-19T03:35:43.462Z,96.20
2018-02-19T03:36:43.369Z,95.17
2018-02-19T03:37:43.294Z,94.98
2018-02-19T03:38:43.197Z,95.07
2018-02-19T03:39:43.119Z,94.22
2018-02-19T03:40:43.025Z,94.03
2018-02-19T03:41:42.949Z,93.84
2018-02-19T03:42:42.857Z,93.28
2018-02-19T03:43:42.777Z,92.99
2018-02-19T03:44:42.681Z,92.24
2018-02-19T03:45:42.603Z,92.05
2018-02-19T03:46:42.511Z,92.38
2018-02-19T03:47:42.434Z,92.29
2018-02-19T03:48:42.340Z,92.10
2018-02-19T03:49:42.263Z,92.47
2018-02-19T03:50:42.169Z,91.91
2018-02-19T03:51:42.092Z,92.95
2018-02-19T03:52:41.999Z,92.95
2018-02-19T03:53:41.925Z,93.70
2018-02-19T03:54:41.827Z,94.17
2018-02-19T03:55:41.745Z,94.93
2018-02-19T03:56:41.655Z,95.21
2018-02-19T03:57:41.577Z,95.21
2018-02-19T03:58:41.483Z,95.12
2018-02-19T03:59:41.406Z,95.54
2018-02-19T04:00:41.311Z,95.12
2018-02-19T04:01:41.234Z,95.59
2018-02-19T04:02:41.137Z,94.74
2018-02-19T04:03:41.056Z,93.51
2018-02-19T04:04:40.968Z,92.95
2018-02-19T04:05:40.890Z,92.95
2018-02-19T04:06:40.800Z,92.76
2018-02-19T04:07:40.718Z,93.32
2018-02-19T04:08:40.625Z,93.51
2018-02-19T04:09:40.549Z,93.98
2018-02-19T04:10:40.455Z,94.08
2018-02-19T04:11:40.374Z,93.89
2018-02-19T04:12:40.279Z,94.08
2018-02-19T04:13:40.203Z,94.46
2018-02-19T04:14:40.111Z,94.55
2018-02-19T04:15:40.038Z,94.08
2018-02-19T04:16:39.940Z,93.23
2018-02-19T04:17:39.866Z,92.85
2018-02-19T04:18:39.767Z,93.04
2018-02-19T04:19:39.689Z,92.29
2018-02-19T04:20:39.596Z,92.00
2018-02-19T04:21:39.516Z,90.88
2018-02-19T04:22:39.428Z,90.69
2018-02-19T04:23:39.348Z,91.53
2018-02-19T04:24:39.252Z,92.00
2018-02-19T04:25:39.179Z,92.10
2018-02-19T04:26:39.079Z,93.13
2018-02-19T04:27:39.006Z,92.66
2018-02-19T04:28:38.910Z,91.63
2018-02-19T04:29:38.833Z,91.82
2018-02-19T04:30:38.739Z,91.91
2018-02-19T04:31:38.659Z,92.38
2018-02-19T04:32:38.567Z,92.66
2018-02-19T04:33:38.489Z,93.04
2018-02-19T04:34:38.396Z,93.23
2018-02-19T04:35:38.323Z,93.70
2018-02-19T04:36:38.225Z,93.70
2018-02-19T04:37:38.145Z,93.80
2018-02-19T04:38:38.052Z,94.08
2018-02-19T04:39:37.981Z,94.83
2018-02-19T04:40:37.879Z,95.12
2018-02-19T04:41:37.800Z,95.02
2018-02-19T04:42:37.706Z,95.02
2018-02-19T04:43:37.629Z,95.50
2018-02-19T04:44:37.537Z,95.02
2018-02-19T04:45:37.463Z,94.93
2018-02-19T04:46:37.373Z,94.65
2018-02-19T04:47:37.278Z,94.36
2018-02-19T04:48:37.257Z,93.98
2018-02-19T04:49:37.105Z,93.80
2018-02-19T04:50:37.066Z,94.08
2018-02-19T04:51:36.934Z,93.98
2018-02-19T04:52:36.873Z,94.08
2018-02-19T04:53:36.765Z,94.55
2018-02-19T04:54:36.684Z,94.93
2018-02-19T04:55:36.591Z,95.21
2018-02-19T04:56:36.592Z,94.74
2018-02-19T04:57:36.420Z,94.93
2018-02-19T04:58:36.403Z,94.83
2018-02-19T04:59:36.246Z,95.02
2018-02-19T05:00:36.211Z,95.21
2018-02-19T05:01:36.076Z,95.02
2018-02-19T05:02:36.017Z,94.46
2018-02-19T05:03:35.904Z,93.89
2018-02-19T05:04:35.928Z,93.04
2018-02-19T05:05:35.734Z,92.00
2018-02-19T05:06:35.737Z,91.72
2018-02-19T05:07:35.561Z,90.50
2018-02-19T05:08:35.544Z,90.97
2018-02-19T05:09:35.387Z,90.59
2018-02-19T05:10:35.353Z,90.78
2018-02-19T05:11:35.216Z,91.53
2018-02-19T05:12:35.162Z,91.82
2018-02-19T05:13:35.045Z,91.53
2018-02-19T05:14:35.075Z,92.29
2018-02-19T05:15:34.872Z,92.57
2018-02-19T05:16:34.883Z,93.04
2018-02-19T05:17:34.701Z,92.76
2018-02-19T05:18:34.689Z,93.13
2018-02-19T05:19:34.528Z,93.04
2018-02-19T05:20:34.497Z,92.57
2018-02-19T05:21:34.359Z,91.63
2018-02-19T05:22:34.307Z,91.63
2018-02-19T05:23:34.191Z,91.63
2018-02-19T05:24:34.213Z,92.29
2018-02-19T05:25:34.016Z,92.66
2018-02-19T05:26:34.027Z,92.57
2018-02-19T05:27:33.840Z,93.04
2018-02-19T05:28:33.764Z,92.38
2018-02-19T05:29:33.671Z,91.63
2018-02-19T05:30:33.592Z,91.82
2018-02-19T05:31:33.502Z,90.78
2018-02-19T05:32:33.446Z,91.72
2018-02-19T05:33:33.323Z,91.91
2018-02-19T05:34:33.263Z,92.29
2018-02-19T05:35:33.153Z,92.95
2018-02-19T05:36:33.075Z,93.23
2018-02-19T05:37:32.980Z,93.61
2018-02-19T05:38:32.902Z,93.61
2018-02-19T05:39:32.811Z,93.70
2018-02-19T05:40:32.784Z,94.17
2018-02-19T05:41:32.632Z,94.08
2018-02-19T05:42:32.593Z,94.08
2018-02-19T05:43:32.465Z,93.80
2018-02-19T05:44:32.403Z,93.98
2018-02-19T05:45:32.293Z,93.80
2018-02-19T05:46:32.313Z,93.13
2018-02-19T05:47:32.119Z,93.13
2018-02-19T05:48:32.120Z,92.10
2018-02-19T05:49:31.950Z,92.38
2018-02-19T05:50:31.869Z,91.53
2018-02-19T05:51:31.776Z,92.66
2018-02-19T05:52:31.697Z,93.23
2018-02-19T05:53:31.602Z,93.23
2018-02-19T05:54:31.524Z,93.61
2018-02-19T05:55:31.430Z,93.70
2018-02-19T05:56:31.457Z,93.80
2018-02-19T05:57:31.259Z,93.98
2018-02-19T05:58:31.265Z,94.08
2018-02-19T05:59:31.092Z,94.08
2018-02-19T06:00:31.077Z,93.42
2018-02-19T06:01:30.914Z,93.51
2018-02-19T06:02:30.882Z,92.85
2018-02-19T06:03:30.741Z,93.32
2018-02-19T06:04:30.664Z,92.57
2018-02-19T06:05:30.568Z,92.00
2018-02-19T06:06:30.492Z,92.47
2018-02-19T06:07:30.401Z,91.91
2018-02-19T06:08:30.317Z,92.47
2018-02-19T06:09:30.228Z,92.38
2018-02-19T06:10:30.146Z,92.57
2018-02-19T06:11:30.055Z,92.95
2018-02-19T06:12:30.014Z,92.95
2018-02-19T06:13:29.885Z,93.23
2018-02-19T06:14:29.795Z,92.95
2018-02-19T06:15:29.704Z,93.32
2018-02-19T06:16:29.632Z,93.32
2018-02-19T06:17:29.548Z,93.23
2018-02-19T06:18:29.454Z,93.04
2018-02-19T06:19:29.370Z,92.95
2018-02-19T06:20:29.283Z,92.85
2018-02-19T06:21:29.187Z,93.04
2018-02-19T06:22:29.110Z,93.32
2018-02-19T06:23:29.020Z,93.23
2018-02-19T06:24:28.937Z,93.04
2018-02-19T06:25:28.843Z,93.42
2018-02-19T06:26:28.760Z,93.32
2018-02-19T06:27:28.677Z,93.23
2018-02-19T06:28:28.596Z,93.70
2018-02-19T06:29:28.501Z,93.98
2018-02-19T06:30:28.421Z,94.27
2018-02-19T06:31:28.330Z,93.70
2018-02-19T06:32:28.251Z,94.65
2018-02-19T06:33:28.156Z,94.65
2018-02-19T06:34:28.079Z,95.02
2018-02-19T06:35:27.982Z,95.02
2018-02-19T06:36:27.904Z,95.12
2018-02-19T06:37:27.807Z,95.21
2018-02-19T06:38:27.738Z,95.40
2018-02-19T06:39:27.638Z,95.12
2018-02-19T06:40:27.570Z,94.46
2018-02-19T06:41:27.466Z,94.65
2018-02-19T06:42:27.387Z,94.46
2018-02-19T06:43:27.295Z,94.36
2018-02-19T06:44:27.217Z,94.36
2018-02-19T06:45:27.122Z,94.36
2018-02-19T06:46:27.040Z,94.55
2018-02-19T06:47:26.949Z,94.74
2018-02-19T06:48:26.871Z,95.31
2018-02-19T06:49:26.779Z,95.02
2018-02-19T06:50:26.701Z,95.68
2018-02-19T06:51:26.605Z,95.40
2018-02-19T06:52:26.533Z,95.78
2018-02-19T06:53:26.433Z,95.78
2018-02-19T06:54:26.401Z,95.97
2018-02-19T06:55:26.262Z,95.97
2018-02-19T06:56:26.180Z,95.78
2018-02-19T06:57:26.091Z,95.87
2018-02-19T06:58:26.006Z,95.97
2018-02-19T06:59:25.917Z,95.78
2018-02-19T07:00:25.837Z,95.40
2018-02-19T07:01:25.744Z,95.97
2018-02-19T07:02:25.665Z,95.97
2018-02-19T07:03:25.572Z,95.87
2018-02-19T07:04:25.492Z,96.44
2018-02-19T07:05:25.399Z,96.53
2018-02-19T07:06:25.318Z,96.62
2018-02-19T07:07:25.227Z,96.53
2018-02-19T07:08:25.146Z,96.44
2018-02-19T07:09:25.050Z,96.44
2018-02-19T07:10:24.978Z,96.44
2018-02-19T07:11:24.878Z,96.25
2018-02-19T07:12:24.807Z,96.44
2018-02-19T07:13:24.708Z,96.53
2018-02-19T07:14:24.633Z,96.44
2018-02-19T07:15:24.539Z,96.11
2018-02-19T07:16:24.462Z,96.34
2018-02-19T07:17:24.366Z,96.15
2018-02-19T07:18:24.286Z,96.72
2018-02-19T07:19:24.197Z,96.77
2018-02-19T07:20:24.118Z,96.91
2018-02-19T07:21:24.025Z,96.95
2018-02-19T07:22:23.950Z,96.86
2018-02-19T07:23:23.853Z,96.39
2018-02-19T07:24:23.778Z,96.67
2018-02-19T07:25:23.680Z,96.48
2018-02-19T07:26:23.600Z,96.30
2018-02-19T07:27:23.507Z,96.01
2018-02-19T07:28:23.446Z,95.83
2018-02-19T07:29:23.336Z,96.01
2018-02-19T07:30:23.261Z,96.20
2018-02-19T07:31:23.164Z,96.39
2018-02-19T07:32:23.089Z,96.39
2018-02-19T07:33:22.996Z,96.86
2018-02-19T07:34:22.913Z,97.14
2018-02-19T07:35:22.821Z,96.77
2018-02-19T07:36:22.749Z,96.95
2018-02-19T07:37:22.649Z,97.05
2018-02-19T07:38:22.569Z,97.14
2018-02-19T07:39:22.475Z,97.43
2018-02-19T07:40:22.404Z,96.77
2018-02-19T07:41:22.306Z,97.05
2018-02-19T07:42:22.226Z,96.20
2018-02-19T07:43:22.135Z,96.30
2018-02-19T07:44:22.079Z,95.83
2018-02-19T07:45:21.961Z,95.31
2018-02-19T07:46:21.885Z,95.40
2018-02-19T07:47:21.792Z,95.21
2018-02-19T07:48:21.715Z,94.55
2018-02-19T07:49:21.620Z,93.89
2018-02-19T07:50:21.545Z,93.61
2018-02-19T07:51:21.449Z,93.13
2018-02-19T07:52:21.373Z,92.57
2018-02-19T07:53:21.280Z,92.24
2018-02-19T07:54:21.206Z,92.43
2018-02-19T07:55:21.112Z,92.33
2018-02-19T07:56:21.027Z,92.24
2018-02-19T07:57:20.937Z,92.14
2018-02-19T07:58:20.860Z,91.77
2018-02-19T07:59:20.765Z,90.68
2018-02-19T08:00:20.696Z,90.30
2018-02-19T08:01:20.599Z,90.02
2018-02-19T08:02:20.523Z,89.73
2018-02-19T08:03:20.428Z,89.64
2018-02-19T08:04:20.352Z,89.45
2018-02-19T08:05:20.263Z,89.36
2018-02-19T08:06:20.179Z,88.51
2018-02-19T08:07:20.091Z,87.37
2018-02-19T08:08:20.013Z,87.61
2018-02-19T08:09:19.924Z,86.76
2018-02-19T08:10:19.843Z,86.47
2018-02-19T08:11:19.757Z,86.29
2018-02-19T08:12:19.677Z,86.66
2018-02-19T08:13:19.583Z,86.76
2018-02-19T08:14:19.504Z,86.66
2018-02-19T08:15:19.417Z,86.47
2018-02-19T08:16:19.339Z,85.91
2018-02-19T08:17:19.244Z,84.86
2018-02-19T08:18:19.182Z,85.24
2018-02-19T08:19:19.078Z,85.85
2018-02-19T08:20:19.002Z,85.57
2018-02-19T08:21:18.913Z,84.81
2018-02-19T08:22:18.839Z,83.30
2018-02-19T08:23:18.744Z,82.83
2018-02-19T08:24:18.666Z,82.54
2018-02-19T08:25:18.577Z,83.02
2018-02-19T08:26:18.505Z,83.49
2018-02-19T08:27:18.412Z,82.60
2018-02-19T08:28:18.332Z,83.11
2018-02-19T08:29:18.246Z,83.17
2018-02-19T08:30:18.169Z,83.83
2018-02-19T08:31:18.078Z,84.39
2018-02-19T08:32:18.010Z,84.86
2018-02-19T08:33:17.912Z,84.30
2018-02-19T08:34:17.838Z,84.30
2018-02-19T08:35:17.746Z,85.19
2018-02-19T08:36:17.673Z,85.10
2018-02-19T08:37:17.582Z,85.38
2018-02-19T08:38:17.504Z,85.10
2018-02-19T08:39:17.417Z,84.72
2018-02-19T08:40:17.345Z,83.68
2018-02-19T08:41:17.249Z,83.44
2018-02-19T08:42:17.175Z,82.68
2018-02-19T08:43:17.083Z,82.21
2018-02-19T08:44:17.013Z,81.98
2018-02-19T08:45:16.921Z,82.45
2018-02-19T08:46:16.848Z,83.11
2018-02-19T08:47:16.762Z,82.64
2018-02-19T08:48:16.679Z,81.88
2018-02-19T08:49:16.591Z,81.51
2018-02-19T08:50:16.515Z,81.70
2018-02-19T08:51:16.427Z,81.79
2018-02-19T08:52:16.354Z,82.83
2018-02-19T08:53:16.275Z,83.68
2018-02-19T08:54:16.188Z,84.53
2018-02-19T08:55:16.100Z,85.00
2018-02-19T08:56:16.028Z,84.34
2018-02-19T08:57:15.927Z,84.34
2018-02-19T08:58:15.858Z,84.34
2018-02-19T08:59:15.770Z,84.34
2018-02-19T09:00:15.694Z,84.81
2018-02-19T09:01:15.605Z,85.76
2018-02-19T09:02:15.532Z,85.85
2018-02-19T09:03:15.440Z,85.76
2018-02-19T09:04:15.367Z,86.23
2018-02-19T09:05:15.276Z,86.99
2018-02-19T09:06:15.206Z,86.71
2018-02-19T09:07:15.111Z,86.71
2018-02-19T09:08:15.037Z,85.85
2018-02-19T09:09:14.946Z,85.28
2018-02-19T09:10:14.872Z,85.47
2018-02-19T09:11:14.781Z,85.38
2018-02-19T09:12:14.712Z,85.10
2018-02-19T09:13:14.618Z,85.10
2018-02-19T09:14:14.543Z,85.95
2018-02-19T09:15:14.454Z,85.76
2018-02-19T09:16:14.380Z,85.85
2018-02-19T09:17:14.293Z,86.23
2018-02-19T09:18:14.214Z,86.52
2018-02-19T09:19:14.127Z,86.33
2018-02-19T09:20:14.054Z,85.85
2018-02-19T09:21:13.964Z,86.33
2018-02-19T09:22:13.887Z,86.42
2018-02-19T09:23:13.799Z,86.52
2018-02-19T09:24:13.730Z,86.71
2018-02-19T09:25:13.632Z,87.18
2018-02-19T09:26:13.559Z,86.80
2018-02-19T09:27:13.470Z,85.85
2018-02-19T09:28:13.395Z,85.28
2018-02-19T09:29:13.307Z,85.47
2018-02-19T09:30:13.231Z,86.80
2018-02-19T09:31:13.145Z,86.42
2018-02-19T09:32:13.072Z,87.18
2018-02-19T09:33:12.979Z,87.27
2018-02-19T09:34:12.903Z,86.52
2018-02-19T09:35:12.811Z,86.52
2018-02-19T09:36:12.774Z,86.80
2018-02-19T09:37:12.652Z,86.33
2018-02-19T09:38:12.596Z,86.33
2018-02-19T09:39:12.489Z,86.23
2018-02-19T09:40:12.413Z,86.71
2018-02-19T09:41:12.326Z,86.52
2018-02-19T09:42:12.909Z,86.42
2018-02-19T09:43:12.163Z,85.85
2018-02-19T09:44:12.090Z,85.19
2018-02-19T09:45:12.002Z,85.57
2018-02-19T09:46:11.929Z,86.71
2018-02-19T09:47:11.836Z,86.80
2018-02-19T09:48:11.761Z,85.66
2018-02-19T09:49:11.678Z,85.66
2018-02-19T09:50:11.596Z,86.61
2018-02-19T09:51:11.511Z,86.61
2018-02-19T09:52:11.440Z,87.84
2018-02-19T09:53:11.345Z,88.98
2018-02-19T09:54:11.270Z,87.93
2018-02-19T09:55:11.184Z,87.27
2018-02-19T09:56:11.112Z,87.74
2018-02-19T09:57:11.020Z,87.74
2018-02-19T09:58:10.947Z,88.60
2018-02-19T09:59:10.858Z,89.26
2018-02-19T10:00:10.785Z,88.74
2018-02-19T10:01:10.691Z,88.88
2018-02-19T10:02:10.616Z,89.12
2018-02-19T10:03:10.529Z,88.93
2018-02-19T10:04:10.457Z,88.79
2018-02-19T10:05:10.368Z,88.84
2018-02-19T10:06:10.292Z,89.45
2018-02-19T10:07:10.201Z,89.36
2018-02-19T10:08:10.129Z,88.69
2018-02-19T10:09:10.042Z,89.26
2018-02-19T10:10:09.961Z,89.36
2018-02-19T10:11:09.876Z,89.83
2018-02-19T10:12:09.804Z,88.79
2018-02-19T10:13:09.713Z,87.84
2018-02-19T10:14:09.641Z,87.74
2018-02-19T10:15:09.554Z,87.18
2018-02-19T10:16:09.538Z,87.84
2018-02-19T10:17:09.388Z,87.84
2018-02-19T10:18:09.313Z,88.60
2018-02-19T10:19:09.222Z,88.41
2018-02-19T10:20:09.150Z,87.74
2018-02-19T10:21:09.108Z,87.27
2018-02-19T10:22:08.996Z,88.03
2018-02-19T10:23:08.897Z,87.18
2018-02-19T10:24:08.823Z,87.37
2018-02-19T10:25:08.732Z,88.03
2018-02-19T10:26:08.659Z,88.60
2018-02-19T10:27:08.568Z,89.54
2018-02-19T10:28:08.498Z,90.01
2018-02-19T10:29:08.404Z,89.26
2018-02-19T10:30:08.330Z,89.50
2018-02-19T10:31:08.236Z,90.25
2018-02-19T10:32:08.169Z,90.82
2018-02-19T10:33:08.077Z,90.35
2018-02-19T10:34:08.001Z,90.44
2018-02-19T10:35:07.913Z,89.50
2018-02-19T10:36:07.839Z,90.16
2018-02-19T10:37:07.750Z,90.25
2018-02-19T10:38:07.674Z,89.40
2018-02-19T10:39:07.586Z,89.50
2018-02-19T10:40:07.509Z,89.22
2018-02-19T10:41:07.422Z,88.84
2018-02-19T10:42:07.345Z,89.03
2018-02-19T10:43:07.258Z,89.17
2018-02-19T10:44:07.184Z,89.64
2018-02-19T10:45:07.108Z,89.36
2018-02-19T10:46:07.042Z,88.79
2018-02-19T10:47:06.933Z,89.17
2018-02-19T10:48:06.947Z,88.60
2018-02-19T10:49:06.767Z,88.22
2018-02-19T10:50:06.754Z,88.26
2018-02-19T10:51:06.604Z,87.98
2018-02-19T10:52:06.563Z,87.13
2018-02-19T10:53:06.439Z,87.79
2018-02-19T10:54:06.476Z,87.32
2018-02-19T10:55:06.277Z,85.52
2018-02-19T10:56:06.283Z,83.82
2018-02-19T10:57:06.114Z,83.82
2018-02-19T10:58:06.094Z,85.05
2018-02-19T10:59:05.953Z,84.39
2018-02-19T11:00:05.901Z,83.63
2018-02-19T11:01:05.789Z,83.34
2018-02-19T11:02:05.811Z,83.82
2018-02-19T11:03:05.624Z,82.78
2018-02-19T11:04:06.647Z,83.34
2018-02-19T11:05:05.463Z,83.25
2018-02-19T11:06:05.428Z,82.97
2018-02-19T11:07:05.299Z,81.74
2018-02-19T11:08:05.237Z,82.78
2018-02-19T11:09:05.138Z,81.93
2018-02-19T11:10:05.069Z,81.55
2018-02-19T11:11:04.977Z,82.68
2018-02-19T11:12:04.956Z,82.68
2018-02-19T11:13:04.816Z,82.31
2018-02-19T11:14:04.765Z,81.45
2018-02-19T11:15:04.649Z,81.07
2018-02-19T11:16:04.677Z,82.12
2018-02-19T11:17:04.489Z,82.12
2018-02-19T11:18:04.481Z,81.93
2018-02-19T11:19:04.376Z,81.30
2018-02-19T11:20:04.290Z,82.25
2018-02-19T11:21:04.164Z,81.59
2018-02-19T11:22:04.200Z,80.83
2018-02-19T11:23:04.003Z,81.12
2018-02-19T11:24:04.010Z,81.40
2018-02-19T11:25:03.851Z,80.36
2018-02-19T11:26:03.765Z,80.64
2018-02-19T11:27:03.676Z,80.45
2018-02-19T11:28:03.627Z,80.36
2018-02-19T11:29:03.516Z,79.88
2018-02-19T11:30:03.539Z,79.50
2018-02-19T11:31:03.356Z,81.02
2018-02-19T11:32:03.341Z,80.17
2018-02-19T11:33:03.195Z,80.17
2018-02-19T11:34:03.154Z,80.83
2018-02-19T11:35:03.034Z,80.64
2018-02-19T11:36:02.962Z,81.87
2018-02-19T11:37:02.872Z,81.12
2018-02-19T11:38:02.808Z,80.17
2018-02-19T11:39:02.710Z,81.40
2018-02-19T11:40:02.681Z,80.64
2018-02-19T11:41:02.553Z,80.26
2018-02-19T11:42:02.487Z,80.55
2018-02-19T11:43:02.388Z,79.69
2018-02-19T11:44:02.314Z,79.22
2018-02-19T11:45:02.230Z,80.36
2018-02-19T11:46:02.156Z,81.59
2018-02-19T11:47:02.080Z,80.36
2018-02-19T11:48:02.019Z,79.13
2018-02-19T11:49:01.906Z,79.88
2018-02-19T11:50:01.928Z,79.32
2018-02-19T11:51:01.744Z,78.75
2018-02-19T11:52:01.734Z,78.65
2018-02-19T11:53:01.618Z,78.37
2018-02-19T11:54:01.540Z,78.75
2018-02-19T11:55:01.421Z,78.08
2018-02-19T11:56:01.454Z,78.18
2018-02-19T11:57:01.262Z,77.70
2018-02-19T11:58:01.267Z,78.18
2018-02-19T11:59:01.101Z,78.27
2018-02-19T12:00:01.071Z,78.46
2018-02-19T12:01:00.989Z,78.75
2018-02-19T12:02:00.880Z,79.50
2018-02-19T12:03:00.776Z,80.45
2018-02-19T12:04:00.790Z,81.21
2018-02-19T12:05:00.628Z,81.30
2018-02-19T12:06:00.655Z,81.77
2018-02-19T12:07:00.460Z,81.30
2018-02-19T12:08:00.408Z,81.59
2018-02-19T12:09:00.299Z,80.64
2018-02-19T12:10:00.315Z,80.45
2018-02-19T12:11:00.135Z,80.36
2018-02-19T12:12:00.125Z,80.93
2018-02-19T12:12:59.988Z,80.36
2018-02-19T12:13:59.931Z,79.60
2018-02-19T12:14:59.814Z,78.94
2018-02-19T12:15:59.847Z,78.37
2018-02-19T12:16:59.656Z,78.27
2018-02-19T12:17:59.653Z,78.65
2018-02-19T12:18:59.493Z,78.65
2018-02-19T12:19:59.461Z,79.17
2018-02-19T12:20:59.333Z,80.55
2018-02-19T12:21:59.269Z,80.74
2018-02-19T12:22:59.192Z,80.30
2018-02-19T12:23:59.177Z,78.98
2018-02-19T12:24:59.013Z,78.31
2018-02-19T12:25:58.990Z,78.98
2018-02-19T12:26:58.850Z,80.40
2018-02-19T12:27:58.794Z,79.45
2018-02-19T12:28:58.689Z,77.46
2018-02-19T12:29:58.707Z,77.46
2018-02-19T12:30:58.531Z,77.75
2018-02-19T12:31:58.515Z,78.13
2018-02-19T12:32:58.373Z,77.08
2018-02-19T12:33:58.322Z,77.75
2018-02-19T12:34:58.211Z,78.50
2018-02-19T12:35:58.234Z,77.04
2018-02-19T12:36:58.049Z,76.86
2018-02-19T12:37:58.044Z,78.94
2018-02-19T12:38:57.893Z,78.46
2018-02-19T12:39:57.851Z,78.27
2018-02-19T12:40:57.727Z,78.03
2018-02-19T12:41:57.763Z,78.13
2018-02-19T12:42:57.568Z,78.50
2018-02-19T12:43:57.570Z,78.13
2018-02-19T12:44:57.410Z,76.99
2018-02-19T12:45:57.379Z,77.46
2018-02-19T12:46:57.250Z,78.08
2018-02-19T12:47:57.188Z,78.08
2018-02-19T12:48:57.091Z,76.86
2018-02-19T12:49:57.098Z,77.51
2018-02-19T12:50:56.930Z,77.99